sensor_id;sensor_type;location;lat;lon;timestamp;P1;durP1;ratioP1;P2;durP2;ratioP2
1404;SDS011;697;51.114;6.542;2022-12-13T00:01:37;24.20;;;16.60;;
1404;SDS011;697;51.114;6.542;2022-12-13T00:04:05;30.60;;;19.30;;
1404;SDS011;697;51.114;6.542;2022-12-13T00:06:33;22.50;;;16.10;;
1404;SDS011;697;51.114;6.542;2022-12-13T00:09:01;27.27;;;18.40;;
1404;SDS011;697;51.114;6.542;2022-12-13T00:11:28;23.67;;;16.27;;
1404;SDS011;697;51.114;6.542;2022-12-13T00:13:55;27.47;;;17.60;;
1404;SDS011;697;51.114;6.542;2022-12-13T00:16:23;26.87;;;17.07;;
1404;SDS011;697;51.114;6.542;2022-12-13T00:18:53;27.17;;;17.60;;
1404;SDS011;697;51.114;6.542;2022-12-13T00:21:21;23.50;;;15.90;;
1404;SDS011;697;51.114;6.542;2022-12-13T00:23:50;34.20;;;18.80;;
1404;SDS011;697;51.114;6.542;2022-12-13T00:26:17;24.37;;;15.80;;
1404;SDS011;697;51.114;6.542;2022-12-13T00:28:45;27.37;;;17.93;;
1404;SDS011;697;51.114;6.542;2022-12-13T00:31:15;33.33;;;18.70;;
1404;SDS011;697;51.114;6.542;2022-12-13T00:33:42;29.17;;;16.90;;
1404;SDS011;697;51.114;6.542;2022-12-13T00:36:11;31.67;;;17.70;;
1404;SDS011;697;51.114;6.542;2022-12-13T00:38:38;26.03;;;16.93;;
1404;SDS011;697;51.114;6.542;2022-12-13T00:41:11;25.23;;;16.57;;
1404;SDS011;697;51.114;6.542;2022-12-13T00:43:38;27.60;;;18.03;;
1404;SDS011;697;51.114;6.542;2022-12-13T00:46:05;27.60;;;16.53;;
1404;SDS011;697;51.114;6.542;2022-12-13T00:48:33;30.43;;;17.30;;
1404;SDS011;697;51.114;6.542;2022-12-13T00:51:04;30.67;;;19.13;;
1404;SDS011;697;51.114;6.542;2022-12-13T00:53:33;27.67;;;17.13;;
1404;SDS011;697;51.114;6.542;2022-12-13T00:55:59;28.67;;;16.90;;
1404;SDS011;697;51.114;6.542;2022-12-13T00:58:26;27.93;;;18.47;;
1404;SDS011;697;51.114;6.542;2022-12-13T01:01:00;27.57;;;19.00;;
1404;SDS011;697;51.114;6.542;2022-12-13T01:03:27;29.37;;;17.17;;
1404;SDS011;697;51.114;6.542;2022-12-13T01:05:54;24.03;;;15.23;;
1404;SDS011;697;51.114;6.542;2022-12-13T01:08:21;28.57;;;18.80;;
1404;SDS011;697;51.114;6.542;2022-12-13T01:10:49;33.97;;;18.87;;
1404;SDS011;697;51.114;6.542;2022-12-13T01:13:16;29.87;;;18.93;;
1404;SDS011;697;51.114;6.542;2022-12-13T01:15:42;31.07;;;18.20;;
1404;SDS011;697;51.114;6.542;2022-12-13T01:18:10;35.33;;;19.20;;
1404;SDS011;697;51.114;6.542;2022-12-13T01:20:38;29.90;;;19.17;;
1404;SDS011;697;51.114;6.542;2022-12-13T01:23:05;26.87;;;17.87;;
1404;SDS011;697;51.114;6.542;2022-12-13T01:25:32;27.07;;;16.50;;
1404;SDS011;697;51.114;6.542;2022-12-13T01:28:00;26.80;;;17.80;;
1404;SDS011;697;51.114;6.542;2022-12-13T01:30:26;31.93;;;18.37;;
1404;SDS011;697;51.114;6.542;2022-12-13T01:32:53;28.80;;;17.40;;
1404;SDS011;697;51.114;6.542;2022-12-13T01:35:20;30.13;;;17.30;;
1404;SDS011;697;51.114;6.542;2022-12-13T01:37:46;29.80;;;18.17;;
1404;SDS011;697;51.114;6.542;2022-12-13T01:40:13;28.13;;;17.20;;
1404;SDS011;697;51.114;6.542;2022-12-13T01:42:40;37.00;;;17.87;;
1404;SDS011;697;51.114;6.542;2022-12-13T01:45:21;28.80;;;17.00;;
1404;SDS011;697;51.114;6.542;2022-12-13T01:47:50;27.30;;;16.90;;
1404;SDS011;697;51.114;6.542;2022-12-13T01:50:20;29.07;;;16.57;;
1404;SDS011;697;51.114;6.542;2022-12-13T01:52:50;32.17;;;18.73;;
1404;SDS011;697;51.114;6.542;2022-12-13T01:55:19;31.57;;;19.63;;
1404;SDS011;697;51.114;6.542;2022-12-13T01:57:50;31.00;;;19.00;;
1404;SDS011;697;51.114;6.542;2022-12-13T02:00:21;29.83;;;18.70;;
1404;SDS011;697;51.114;6.542;2022-12-13T02:02:50;32.60;;;17.90;;
1404;SDS011;697;51.114;6.542;2022-12-13T02:05:20;34.83;;;19.67;;
1404;SDS011;697;51.114;6.542;2022-12-13T02:07:51;31.33;;;18.33;;
1404;SDS011;697;51.114;6.542;2022-12-13T02:10:19;29.23;;;17.13;;
1404;SDS011;697;51.114;6.542;2022-12-13T02:12:46;32.73;;;18.47;;
1404;SDS011;697;51.114;6.542;2022-12-13T02:15:13;28.13;;;18.67;;
1404;SDS011;697;51.114;6.542;2022-12-13T02:17:50;28.20;;;18.10;;
1404;SDS011;697;51.114;6.542;2022-12-13T02:20:27;33.23;;;17.80;;
1404;SDS011;697;51.114;6.542;2022-12-13T02:23:12;38.57;;;19.50;;
1404;SDS011;697;51.114;6.542;2022-12-13T02:26:08;30.37;;;17.40;;
1404;SDS011;697;51.114;6.542;2022-12-13T02:29:09;36.50;;;19.97;;
1404;SDS011;697;51.114;6.542;2022-12-13T02:31:58;30.10;;;17.57;;
1404;SDS011;697;51.114;6.542;2022-12-13T02:34:30;35.07;;;19.90;;
1404;SDS011;697;51.114;6.542;2022-12-13T02:37:03;30.83;;;18.90;;
1404;SDS011;697;51.114;6.542;2022-12-13T02:39:33;30.53;;;21.20;;
1404;SDS011;697;51.114;6.542;2022-12-13T02:42:03;33.20;;;20.60;;
1404;SDS011;697;51.114;6.542;2022-12-13T02:44:33;36.70;;;20.33;;
1404;SDS011;697;51.114;6.542;2022-12-13T02:47:07;36.97;;;19.50;;
1404;SDS011;697;51.114;6.542;2022-12-13T02:49:37;36.57;;;21.07;;
1404;SDS011;697;51.114;6.542;2022-12-13T02:52:08;31.30;;;20.57;;
1404;SDS011;697;51.114;6.542;2022-12-13T02:54:37;31.83;;;19.10;;
1404;SDS011;697;51.114;6.542;2022-12-13T02:59:54;37.00;;;20.00;;
1404;SDS011;697;51.114;6.542;2022-12-13T03:02:24;33.63;;;19.87;;
1404;SDS011;697;51.114;6.542;2022-12-13T03:05:00;32.27;;;19.87;;
1404;SDS011;697;51.114;6.542;2022-12-13T03:07:54;33.30;;;20.17;;
1404;SDS011;697;51.114;6.542;2022-12-13T03:10:31;37.23;;;22.60;;
1404;SDS011;697;51.114;6.542;2022-12-13T03:13:05;34.60;;;20.20;;
1404;SDS011;697;51.114;6.542;2022-12-13T03:15:53;31.67;;;19.60;;
1404;SDS011;697;51.114;6.542;2022-12-13T03:18:25;31.70;;;20.37;;
1404;SDS011;697;51.114;6.542;2022-12-13T03:20:54;33.43;;;19.20;;
1404;SDS011;697;51.114;6.542;2022-12-13T03:23:23;32.70;;;21.30;;
1404;SDS011;697;51.114;6.542;2022-12-13T03:25:51;30.10;;;20.00;;
1404;SDS011;697;51.114;6.542;2022-12-13T03:28:20;34.37;;;19.87;;
1404;SDS011;697;51.114;6.542;2022-12-13T03:30:47;35.43;;;20.83;;
1404;SDS011;697;51.114;6.542;2022-12-13T03:33:14;34.20;;;20.07;;
1404;SDS011;697;51.114;6.542;2022-12-13T03:35:42;33.53;;;19.87;;
1404;SDS011;697;51.114;6.542;2022-12-13T03:38:09;32.70;;;19.77;;
1404;SDS011;697;51.114;6.542;2022-12-13T03:40:36;29.13;;;17.80;;
1404;SDS011;697;51.114;6.542;2022-12-13T03:43:03;32.97;;;19.30;;
1404;SDS011;697;51.114;6.542;2022-12-13T03:45:30;30.90;;;19.70;;
1404;SDS011;697;51.114;6.542;2022-12-13T03:47:57;30.83;;;20.90;;
1404;SDS011;697;51.114;6.542;2022-12-13T03:50:23;28.00;;;19.33;;
1404;SDS011;697;51.114;6.542;2022-12-13T03:52:51;36.33;;;19.40;;
1404;SDS011;697;51.114;6.542;2022-12-13T03:55:23;34.03;;;18.53;;
1404;SDS011;697;51.114;6.542;2022-12-13T03:57:50;31.27;;;18.80;;
1404;SDS011;697;51.114;6.542;2022-12-13T04:00:17;34.17;;;19.87;;
1404;SDS011;697;51.114;6.542;2022-12-13T04:02:44;30.60;;;19.13;;
1404;SDS011;697;51.114;6.542;2022-12-13T04:05:10;32.67;;;20.40;;
1404;SDS011;697;51.114;6.542;2022-12-13T04:07:37;34.30;;;19.30;;
1404;SDS011;697;51.114;6.542;2022-12-13T04:10:06;37.43;;;20.50;;
1404;SDS011;697;51.114;6.542;2022-12-13T04:12:33;32.77;;;19.23;;
1404;SDS011;697;51.114;6.542;2022-12-13T04:15:17;32.90;;;20.80;;
1404;SDS011;697;51.114;6.542;2022-12-13T04:17:44;32.13;;;20.40;;
1404;SDS011;697;51.114;6.542;2022-12-13T04:20:10;36.40;;;20.10;;
1404;SDS011;697;51.114;6.542;2022-12-13T04:22:37;35.60;;;19.97;;
1404;SDS011;697;51.114;6.542;2022-12-13T04:25:05;32.27;;;20.43;;
1404;SDS011;697;51.114;6.542;2022-12-13T04:27:32;33.73;;;20.97;;
1404;SDS011;697;51.114;6.542;2022-12-13T04:30:02;35.70;;;20.47;;
1404;SDS011;697;51.114;6.542;2022-12-13T04:32:29;33.27;;;20.17;;
1404;SDS011;697;51.114;6.542;2022-12-13T04:34:56;33.87;;;19.87;;
1404;SDS011;697;51.114;6.542;2022-12-13T04:37:23;39.20;;;20.17;;
1404;SDS011;697;51.114;6.542;2022-12-13T04:39:49;35.13;;;20.57;;
1404;SDS011;697;51.114;6.542;2022-12-13T04:42:17;36.23;;;20.40;;
1404;SDS011;697;51.114;6.542;2022-12-13T04:44:44;31.80;;;17.87;;
1404;SDS011;697;51.114;6.542;2022-12-13T04:47:13;30.90;;;19.67;;
1404;SDS011;697;51.114;6.542;2022-12-13T04:49:40;34.90;;;19.30;;
1404;SDS011;697;51.114;6.542;2022-12-13T04:52:07;33.77;;;20.00;;
1404;SDS011;697;51.114;6.542;2022-12-13T04:54:35;31.40;;;20.07;;
1404;SDS011;697;51.114;6.542;2022-12-13T04:57:02;39.67;;;21.00;;
1404;SDS011;697;51.114;6.542;2022-12-13T04:59:31;33.23;;;19.97;;
1404;SDS011;697;51.114;6.542;2022-12-13T05:01:58;37.10;;;21.20;;
1404;SDS011;697;51.114;6.542;2022-12-13T05:04:25;28.90;;;19.80;;
1404;SDS011;697;51.114;6.542;2022-12-13T05:06:52;37.27;;;21.30;;
1404;SDS011;697;51.114;6.542;2022-12-13T05:09:18;38.10;;;21.53;;
1404;SDS011;697;51.114;6.542;2022-12-13T05:11:45;38.03;;;20.37;;
1404;SDS011;697;51.114;6.542;2022-12-13T05:14:12;38.33;;;20.50;;
1404;SDS011;697;51.114;6.542;2022-12-13T05:16:40;35.40;;;20.70;;
1404;SDS011;697;51.114;6.542;2022-12-13T05:19:07;38.30;;;20.70;;
1404;SDS011;697;51.114;6.542;2022-12-13T05:21:33;36.63;;;21.90;;
1404;SDS011;697;51.114;6.542;2022-12-13T05:24:00;36.57;;;20.43;;
1404;SDS011;697;51.114;6.542;2022-12-13T05:26:27;38.37;;;20.43;;
1404;SDS011;697;51.114;6.542;2022-12-13T05:28:54;35.80;;;21.07;;
1404;SDS011;697;51.114;6.542;2022-12-13T05:31:21;41.50;;;21.87;;
1404;SDS011;697;51.114;6.542;2022-12-13T05:33:49;38.10;;;22.57;;
1404;SDS011;697;51.114;6.542;2022-12-13T05:36:16;34.97;;;20.83;;
1404;SDS011;697;51.114;6.542;2022-12-13T05:38:43;36.60;;;19.97;;
1404;SDS011;697;51.114;6.542;2022-12-13T05:41:10;39.17;;;23.00;;
1404;SDS011;697;51.114;6.542;2022-12-13T05:43:41;40.60;;;22.17;;
1404;SDS011;697;51.114;6.542;2022-12-13T05:46:08;35.30;;;20.20;;
1404;SDS011;697;51.114;6.542;2022-12-13T05:48:36;36.03;;;21.00;;
1404;SDS011;697;51.114;6.542;2022-12-13T05:51:04;37.33;;;22.87;;
1404;SDS011;697;51.114;6.542;2022-12-13T05:53:31;34.83;;;22.50;;
1404;SDS011;697;51.114;6.542;2022-12-13T05:55:58;39.00;;;21.90;;
1404;SDS011;697;51.114;6.542;2022-12-13T05:58:25;41.50;;;23.07;;
1404;SDS011;697;51.114;6.542;2022-12-13T06:00:51;41.17;;;23.30;;
1404;SDS011;697;51.114;6.542;2022-12-13T06:03:18;42.27;;;22.93;;
1404;SDS011;697;51.114;6.542;2022-12-13T06:05:45;40.93;;;22.70;;
1404;SDS011;697;51.114;6.542;2022-12-13T06:08:13;41.60;;;24.53;;
1404;SDS011;697;51.114;6.542;2022-12-13T06:10:40;38.53;;;23.00;;
1404;SDS011;697;51.114;6.542;2022-12-13T06:13:07;44.23;;;23.30;;
1404;SDS011;697;51.114;6.542;2022-12-13T06:15:34;39.93;;;21.87;;
1404;SDS011;697;51.114;6.542;2022-12-13T06:18:03;41.57;;;24.30;;
1404;SDS011;697;51.114;6.542;2022-12-13T06:20:30;37.77;;;22.10;;
1404;SDS011;697;51.114;6.542;2022-12-13T06:22:57;41.87;;;22.90;;
1404;SDS011;697;51.114;6.542;2022-12-13T06:25:25;49.00;;;24.17;;
1404;SDS011;697;51.114;6.542;2022-12-13T06:27:52;55.70;;;24.70;;
1404;SDS011;697;51.114;6.542;2022-12-13T06:30:19;38.93;;;23.40;;
1404;SDS011;697;51.114;6.542;2022-12-13T06:32:46;44.37;;;24.83;;
1404;SDS011;697;51.114;6.542;2022-12-13T06:35:14;47.70;;;27.07;;
1404;SDS011;697;51.114;6.542;2022-12-13T06:37:41;40.10;;;24.47;;
1404;SDS011;697;51.114;6.542;2022-12-13T06:40:08;45.10;;;23.13;;
1404;SDS011;697;51.114;6.542;2022-12-13T06:42:37;43.13;;;23.90;;
1404;SDS011;697;51.114;6.542;2022-12-13T06:45:04;38.93;;;22.80;;
1404;SDS011;697;51.114;6.542;2022-12-13T06:47:31;39.37;;;23.77;;
1404;SDS011;697;51.114;6.542;2022-12-13T06:49:57;39.03;;;23.80;;
1404;SDS011;697;51.114;6.542;2022-12-13T06:52:24;36.93;;;22.83;;
1404;SDS011;697;51.114;6.542;2022-12-13T06:54:51;40.97;;;22.70;;
1404;SDS011;697;51.114;6.542;2022-12-13T06:57:18;41.83;;;23.90;;
1404;SDS011;697;51.114;6.542;2022-12-13T06:59:46;41.77;;;25.07;;
1404;SDS011;697;51.114;6.542;2022-12-13T07:02:12;42.10;;;24.63;;
1404;SDS011;697;51.114;6.542;2022-12-13T07:04:39;41.90;;;24.70;;
1404;SDS011;697;51.114;6.542;2022-12-13T07:07:06;40.40;;;24.20;;
1404;SDS011;697;51.114;6.542;2022-12-13T07:09:33;45.53;;;23.97;;
1404;SDS011;697;51.114;6.542;2022-12-13T07:11:59;40.40;;;22.97;;
1404;SDS011;697;51.114;6.542;2022-12-13T07:14:26;42.03;;;21.77;;
1404;SDS011;697;51.114;6.542;2022-12-13T07:16:54;37.27;;;23.00;;
1404;SDS011;697;51.114;6.542;2022-12-13T07:19:21;40.43;;;21.50;;
1404;SDS011;697;51.114;6.542;2022-12-13T07:21:48;37.70;;;20.47;;
1404;SDS011;697;51.114;6.542;2022-12-13T07:24:14;38.40;;;21.47;;
1404;SDS011;697;51.114;6.542;2022-12-13T07:26:41;42.20;;;22.53;;
1404;SDS011;697;51.114;6.542;2022-12-13T07:29:08;37.33;;;21.83;;
1404;SDS011;697;51.114;6.542;2022-12-13T07:31:35;39.73;;;22.10;;
1404;SDS011;697;51.114;6.542;2022-12-13T07:34:03;36.63;;;22.30;;
1404;SDS011;697;51.114;6.542;2022-12-13T07:36:29;33.60;;;21.70;;
1404;SDS011;697;51.114;6.542;2022-12-13T07:38:56;40.50;;;22.20;;
1404;SDS011;697;51.114;6.542;2022-12-13T07:41:23;35.87;;;22.87;;
1404;SDS011;697;51.114;6.542;2022-12-13T07:43:51;35.00;;;21.40;;
1404;SDS011;697;51.114;6.542;2022-12-13T07:46:18;39.20;;;22.67;;
1404;SDS011;697;51.114;6.542;2022-12-13T07:48:45;37.03;;;21.20;;
1404;SDS011;697;51.114;6.542;2022-12-13T07:51:13;39.13;;;22.03;;
1404;SDS011;697;51.114;6.542;2022-12-13T07:53:41;38.53;;;21.60;;
1404;SDS011;697;51.114;6.542;2022-12-13T07:56:08;36.63;;;21.03;;
1404;SDS011;697;51.114;6.542;2022-12-13T07:58:36;33.97;;;20.83;;
1404;SDS011;697;51.114;6.542;2022-12-13T08:01:04;36.90;;;20.90;;
1404;SDS011;697;51.114;6.542;2022-12-13T08:03:32;37.97;;;21.20;;
1404;SDS011;697;51.114;6.542;2022-12-13T08:06:00;38.17;;;19.40;;
1404;SDS011;697;51.114;6.542;2022-12-13T08:08:29;37.83;;;19.93;;
1404;SDS011;697;51.114;6.542;2022-12-13T08:10:59;36.60;;;20.73;;
1404;SDS011;697;51.114;6.542;2022-12-13T08:13:26;30.73;;;18.83;;
1404;SDS011;697;51.114;6.542;2022-12-13T08:15:56;31.77;;;20.00;;
1404;SDS011;697;51.114;6.542;2022-12-13T08:18:24;30.93;;;19.50;;
1404;SDS011;697;51.114;6.542;2022-12-13T08:20:50;38.10;;;20.43;;
1404;SDS011;697;51.114;6.542;2022-12-13T08:23:17;35.63;;;21.23;;
1404;SDS011;697;51.114;6.542;2022-12-13T08:25:50;35.97;;;20.40;;
1404;SDS011;697;51.114;6.542;2022-12-13T08:28:17;33.87;;;21.00;;
1404;SDS011;697;51.114;6.542;2022-12-13T08:30:44;31.43;;;19.40;;
1404;SDS011;697;51.114;6.542;2022-12-13T08:33:12;31.40;;;19.07;;
1404;SDS011;697;51.114;6.542;2022-12-13T08:35:39;30.07;;;18.20;;
1404;SDS011;697;51.114;6.542;2022-12-13T08:38:05;34.93;;;18.70;;
1404;SDS011;697;51.114;6.542;2022-12-13T08:40:32;34.03;;;19.50;;
1404;SDS011;697;51.114;6.542;2022-12-13T08:43:01;30.57;;;18.77;;
1404;SDS011;697;51.114;6.542;2022-12-13T08:45:29;32.17;;;18.70;;
1404;SDS011;697;51.114;6.542;2022-12-13T08:47:58;31.27;;;17.67;;
1404;SDS011;697;51.114;6.542;2022-12-13T08:50:25;33.33;;;19.43;;
1404;SDS011;697;51.114;6.542;2022-12-13T08:52:53;30.80;;;18.40;;
1404;SDS011;697;51.114;6.542;2022-12-13T08:55:19;32.67;;;19.17;;
1404;SDS011;697;51.114;6.542;2022-12-13T08:57:46;36.73;;;19.90;;
1404;SDS011;697;51.114;6.542;2022-12-13T09:00:15;31.27;;;19.17;;
1404;SDS011;697;51.114;6.542;2022-12-13T09:02:44;29.80;;;19.70;;
1404;SDS011;697;51.114;6.542;2022-12-13T09:05:11;32.37;;;18.90;;
1404;SDS011;697;51.114;6.542;2022-12-13T09:07:37;28.97;;;17.83;;
1404;SDS011;697;51.114;6.542;2022-12-13T09:10:07;34.27;;;18.27;;
1404;SDS011;697;51.114;6.542;2022-12-13T09:12:35;30.47;;;18.20;;
1404;SDS011;697;51.114;6.542;2022-12-13T09:15:05;35.30;;;19.37;;
1404;SDS011;697;51.114;6.542;2022-12-13T09:17:34;31.43;;;17.07;;
1404;SDS011;697;51.114;6.542;2022-12-13T09:20:00;28.63;;;17.00;;
1404;SDS011;697;51.114;6.542;2022-12-13T09:22:27;30.93;;;16.27;;
1404;SDS011;697;51.114;6.542;2022-12-13T09:24:54;30.40;;;18.37;;
1404;SDS011;697;51.114;6.542;2022-12-13T09:27:21;28.40;;;18.10;;
1404;SDS011;697;51.114;6.542;2022-12-13T09:29:48;29.87;;;17.47;;
1404;SDS011;697;51.114;6.542;2022-12-13T09:32:15;29.53;;;18.40;;
1404;SDS011;697;51.114;6.542;2022-12-13T09:34:43;28.70;;;17.13;;
1404;SDS011;697;51.114;6.542;2022-12-13T09:37:10;28.47;;;17.17;;
1404;SDS011;697;51.114;6.542;2022-12-13T09:39:37;27.00;;;16.63;;
1404;SDS011;697;51.114;6.542;2022-12-13T09:42:04;24.90;;;16.53;;
1404;SDS011;697;51.114;6.542;2022-12-13T09:44:37;30.23;;;18.20;;
1404;SDS011;697;51.114;6.542;2022-12-13T09:47:09;30.30;;;19.07;;
1404;SDS011;697;51.114;6.542;2022-12-13T09:49:39;28.57;;;18.10;;
1404;SDS011;697;51.114;6.542;2022-12-13T09:52:11;29.23;;;18.60;;
1404;SDS011;697;51.114;6.542;2022-12-13T09:54:40;27.43;;;16.83;;
1404;SDS011;697;51.114;6.542;2022-12-13T09:57:08;28.60;;;18.50;;
1404;SDS011;697;51.114;6.542;2022-12-13T09:59:39;25.90;;;17.10;;
1404;SDS011;697;51.114;6.542;2022-12-13T10:02:11;30.10;;;18.27;;
1404;SDS011;697;51.114;6.542;2022-12-13T10:04:41;31.70;;;17.23;;
1404;SDS011;697;51.114;6.542;2022-12-13T10:07:10;31.70;;;19.97;;
1404;SDS011;697;51.114;6.542;2022-12-13T10:09:43;28.83;;;18.87;;
1404;SDS011;697;51.114;6.542;2022-12-13T10:12:11;29.00;;;19.80;;
1404;SDS011;697;51.114;6.542;2022-12-13T10:14:41;28.50;;;18.50;;
1404;SDS011;697;51.114;6.542;2022-12-13T10:17:14;30.53;;;19.27;;
1404;SDS011;697;51.114;6.542;2022-12-13T10:19:46;30.03;;;17.70;;
1404;SDS011;697;51.114;6.542;2022-12-13T10:22:17;33.00;;;17.90;;
1404;SDS011;697;51.114;6.542;2022-12-13T10:24:47;26.60;;;17.43;;
1404;SDS011;697;51.114;6.542;2022-12-13T10:27:17;28.40;;;18.40;;
1404;SDS011;697;51.114;6.542;2022-12-13T10:29:58;30.73;;;18.47;;
1404;SDS011;697;51.114;6.542;2022-12-13T10:32:27;28.40;;;18.63;;
1404;SDS011;697;51.114;6.542;2022-12-13T10:34:57;31.57;;;18.67;;
1404;SDS011;697;51.114;6.542;2022-12-13T10:37:29;29.43;;;19.37;;
1404;SDS011;697;51.114;6.542;2022-12-13T10:39:56;30.83;;;19.43;;
1404;SDS011;697;51.114;6.542;2022-12-13T10:42:24;28.07;;;17.53;;
1404;SDS011;697;51.114;6.542;2022-12-13T10:45:13;29.30;;;18.40;;
1404;SDS011;697;51.114;6.542;2022-12-13T10:47:41;27.27;;;17.50;;
1404;SDS011;697;51.114;6.542;2022-12-13T10:50:20;32.17;;;19.60;;
1404;SDS011;697;51.114;6.542;2022-12-13T10:52:50;28.10;;;18.00;;
1404;SDS011;697;51.114;6.542;2022-12-13T10:55:23;30.37;;;19.30;;
1404;SDS011;697;51.114;6.542;2022-12-13T10:57:54;27.40;;;17.40;;
1404;SDS011;697;51.114;6.542;2022-12-13T11:00:30;25.23;;;16.73;;
1404;SDS011;697;51.114;6.542;2022-12-13T11:02:59;33.17;;;19.13;;
1404;SDS011;697;51.114;6.542;2022-12-13T11:05:27;28.10;;;18.27;;
1404;SDS011;697;51.114;6.542;2022-12-13T11:07:57;29.27;;;18.63;;
1404;SDS011;697;51.114;6.542;2022-12-13T11:10:41;31.50;;;20.23;;
1404;SDS011;697;51.114;6.542;2022-12-13T11:13:21;29.23;;;19.43;;
1404;SDS011;697;51.114;6.542;2022-12-13T11:15:52;27.03;;;17.80;;
1404;SDS011;697;51.114;6.542;2022-12-13T11:18:21;31.27;;;20.13;;
1404;SDS011;697;51.114;6.542;2022-12-13T11:20:52;25.27;;;16.60;;
1404;SDS011;697;51.114;6.542;2022-12-13T11:23:25;31.03;;;18.83;;
1404;SDS011;697;51.114;6.542;2022-12-13T11:25:55;24.47;;;16.00;;
1404;SDS011;697;51.114;6.542;2022-12-13T11:28:28;26.40;;;16.90;;
1404;SDS011;697;51.114;6.542;2022-12-13T11:31:12;26.93;;;17.10;;
1404;SDS011;697;51.114;6.542;2022-12-13T11:33:47;25.77;;;16.67;;
1404;SDS011;697;51.114;6.542;2022-12-13T11:36:24;22.97;;;15.77;;
1404;SDS011;697;51.114;6.542;2022-12-13T11:39:02;25.47;;;16.00;;
1404;SDS011;697;51.114;6.542;2022-12-13T11:41:42;25.37;;;16.40;;
1404;SDS011;697;51.114;6.542;2022-12-13T11:44:15;24.07;;;16.50;;
1404;SDS011;697;51.114;6.542;2022-12-13T11:46:47;25.13;;;16.10;;
1404;SDS011;697;51.114;6.542;2022-12-13T11:49:17;23.40;;;15.90;;
1404;SDS011;697;51.114;6.542;2022-12-13T11:51:54;24.13;;;16.17;;
1404;SDS011;697;51.114;6.542;2022-12-13T11:54:28;25.13;;;15.03;;
1404;SDS011;697;51.114;6.542;2022-12-13T11:57:00;21.70;;;16.33;;
1404;SDS011;697;51.114;6.542;2022-12-13T11:59:32;25.93;;;16.10;;
1404;SDS011;697;51.114;6.542;2022-12-13T12:02:04;24.47;;;15.57;;
1404;SDS011;697;51.114;6.542;2022-12-13T12:04:38;21.97;;;15.63;;
1404;SDS011;697;51.114;6.542;2022-12-13T12:07:13;22.57;;;14.83;;
1404;SDS011;697;51.114;6.542;2022-12-13T12:09:42;24.67;;;14.93;;
1404;SDS011;697;51.114;6.542;2022-12-13T12:12:15;22.33;;;15.43;;
1404;SDS011;697;51.114;6.542;2022-12-13T12:14:51;21.67;;;14.97;;
1404;SDS011;697;51.114;6.542;2022-12-13T12:17:22;20.90;;;14.07;;
1404;SDS011;697;51.114;6.542;2022-12-13T12:19:50;21.70;;;15.20;;
1404;SDS011;697;51.114;6.542;2022-12-13T12:22:23;21.20;;;14.13;;
1404;SDS011;697;51.114;6.542;2022-12-13T12:24:59;23.17;;;15.10;;
1404;SDS011;697;51.114;6.542;2022-12-13T12:27:39;25.67;;;14.73;;
1404;SDS011;697;51.114;6.542;2022-12-13T12:30:17;25.37;;;16.03;;
1404;SDS011;697;51.114;6.542;2022-12-13T12:32:49;22.33;;;14.10;;
1404;SDS011;697;51.114;6.542;2022-12-13T12:35:28;22.47;;;15.53;;
1404;SDS011;697;51.114;6.542;2022-12-13T12:38:13;20.33;;;14.67;;
1404;SDS011;697;51.114;6.542;2022-12-13T12:41:17;23.13;;;15.83;;
1404;SDS011;697;51.114;6.542;2022-12-13T12:43:54;21.13;;;14.80;;
1404;SDS011;697;51.114;6.542;2022-12-13T12:46:32;19.27;;;13.37;;
1404;SDS011;697;51.114;6.542;2022-12-13T12:49:21;25.00;;;15.90;;
1404;SDS011;697;51.114;6.542;2022-12-13T12:52:10;23.80;;;15.30;;
1404;SDS011;697;51.114;6.542;2022-12-13T12:54:47;21.90;;;16.20;;
1404;SDS011;697;51.114;6.542;2022-12-13T12:57:30;21.40;;;14.40;;
1404;SDS011;697;51.114;6.542;2022-12-13T13:00:08;20.87;;;14.30;;
1404;SDS011;697;51.114;6.542;2022-12-13T13:02:38;21.27;;;15.17;;
1404;SDS011;697;51.114;6.542;2022-12-13T13:05:12;21.47;;;14.03;;
1404;SDS011;697;51.114;6.542;2022-12-13T13:07:48;26.70;;;16.30;;
1404;SDS011;697;51.114;6.542;2022-12-13T13:10:20;21.83;;;14.97;;
1404;SDS011;697;51.114;6.542;2022-12-13T13:12:49;20.23;;;14.43;;
1404;SDS011;697;51.114;6.542;2022-12-13T13:24:20;27.80;;;15.87;;
1404;SDS011;697;51.114;6.542;2022-12-13T13:26:50;22.47;;;15.10;;
1404;SDS011;697;51.114;6.542;2022-12-13T13:29:28;20.33;;;14.70;;
1404;SDS011;697;51.114;6.542;2022-12-13T13:31:58;22.23;;;15.47;;
1404;SDS011;697;51.114;6.542;2022-12-13T13:34:27;24.10;;;15.23;;
1404;SDS011;697;51.114;6.542;2022-12-13T13:36:55;19.10;;;12.93;;
1404;SDS011;697;51.114;6.542;2022-12-13T13:39:36;21.57;;;14.43;;
1404;SDS011;697;51.114;6.542;2022-12-13T13:42:20;20.90;;;14.70;;
1404;SDS011;697;51.114;6.542;2022-12-13T13:47:42;21.07;;;14.37;;
1404;SDS011;697;51.114;6.542;2022-12-13T13:50:45;24.30;;;13.90;;
1404;SDS011;697;51.114;6.542;2022-12-13T13:59:53;23.97;;;13.17;;
1404;SDS011;697;51.114;6.542;2022-12-13T14:02:53;21.70;;;13.57;;
1404;SDS011;697;51.114;6.542;2022-12-13T14:05:48;20.83;;;13.53;;
1404;SDS011;697;51.114;6.542;2022-12-13T14:08:41;20.87;;;12.20;;
1404;SDS011;697;51.114;6.542;2022-12-13T14:11:36;20.60;;;13.97;;
1404;SDS011;697;51.114;6.542;2022-12-13T14:14:36;22.30;;;13.93;;
1404;SDS011;697;51.114;6.542;2022-12-13T14:17:47;20.47;;;14.53;;
1404;SDS011;697;51.114;6.542;2022-12-13T14:20:39;18.87;;;13.10;;
1404;SDS011;697;51.114;6.542;2022-12-13T14:23:14;19.83;;;13.57;;
1404;SDS011;697;51.114;6.542;2022-12-13T14:26:00;20.17;;;12.70;;
1404;SDS011;697;51.114;6.542;2022-12-13T14:28:46;16.30;;;12.20;;
1404;SDS011;697;51.114;6.542;2022-12-13T14:31:16;17.87;;;12.23;;
1404;SDS011;697;51.114;6.542;2022-12-13T14:33:46;21.23;;;12.67;;
1404;SDS011;697;51.114;6.542;2022-12-13T14:36:15;18.67;;;13.30;;
1404;SDS011;697;51.114;6.542;2022-12-13T14:38:43;19.50;;;13.73;;
1404;SDS011;697;51.114;6.542;2022-12-13T14:41:14;23.13;;;13.00;;
1404;SDS011;697;51.114;6.542;2022-12-13T14:43:44;20.57;;;13.77;;
1404;SDS011;697;51.114;6.542;2022-12-13T14:46:12;19.73;;;13.00;;
1404;SDS011;697;51.114;6.542;2022-12-13T14:48:43;20.70;;;13.63;;
1404;SDS011;697;51.114;6.542;2022-12-13T14:51:19;22.57;;;14.90;;
1404;SDS011;697;51.114;6.542;2022-12-13T14:53:55;18.57;;;13.17;;
1404;SDS011;697;51.114;6.542;2022-12-13T14:56:24;24.43;;;14.07;;
1404;SDS011;697;51.114;6.542;2022-12-13T14:58:51;21.20;;;13.90;;
1404;SDS011;697;51.114;6.542;2022-12-13T15:01:27;21.07;;;14.77;;
1404;SDS011;697;51.114;6.542;2022-12-13T15:06:44;20.73;;;11.80;;
1404;SDS011;697;51.114;6.542;2022-12-13T15:09:13;21.77;;;14.30;;
1404;SDS011;697;51.114;6.542;2022-12-13T15:11:41;20.63;;;12.50;;
1404;SDS011;697;51.114;6.542;2022-12-13T15:14:11;21.30;;;14.77;;
1404;SDS011;697;51.114;6.542;2022-12-13T15:16:45;18.90;;;12.57;;
1404;SDS011;697;51.114;6.542;2022-12-13T15:19:14;20.77;;;15.00;;
1404;SDS011;697;51.114;6.542;2022-12-13T15:21:53;26.27;;;14.13;;
1404;SDS011;697;51.114;6.542;2022-12-13T15:24:23;20.60;;;13.20;;
1404;SDS011;697;51.114;6.542;2022-12-13T15:26:53;19.87;;;12.60;;
1404;SDS011;697;51.114;6.542;2022-12-13T15:29:22;18.33;;;12.10;;
1404;SDS011;697;51.114;6.542;2022-12-13T15:31:50;19.30;;;13.40;;
1404;SDS011;697;51.114;6.542;2022-12-13T15:37:00;22.53;;;14.83;;
1404;SDS011;697;51.114;6.542;2022-12-13T15:39:28;21.27;;;13.67;;
1404;SDS011;697;51.114;6.542;2022-12-13T15:41:56;20.70;;;13.97;;
1404;SDS011;697;51.114;6.542;2022-12-13T15:44:24;23.03;;;14.90;;
1404;SDS011;697;51.114;6.542;2022-12-13T15:46:54;23.13;;;14.20;;
1404;SDS011;697;51.114;6.542;2022-12-13T15:49:28;24.43;;;13.37;;